Time;durP1;ratioP1;P1;durP2;ratioP2;P2;SDS_P1;SDS_P2;PMS_P1;PMS_P2;Temp;Humidity;BMP_temperature;BMP_pressure;BME280_temperature;BME280_humidity;BME280_pressure;Samples;Min_cycle;Max_cycle;Signal;HPM_P1;HPM_P2
2020/12/14 00:01:29;;;;;;;48.13;11.32;;;;;;;4.99;83.72;96171.13;5069208;28;20044;-66
2020/12/14 00:03:56;;;;;;;48.72;11.32;;;;;;;5.00;83.51;96161.13;5070949;28;20048;-65
2020/12/14 00:06:22;;;;;;;33.38;11.23;;;;;;;4.98;83.59;96164.91;5069715;28;20127;-66
2020/12/14 00:08:48;;;;;;;26.92;9.77;;;;;;;4.99;83.62;96163.03;5070849;28;20152;-65
2020/12/14 00:11:14;;;;;;;36.72;10.40;;;;;;;4.95;83.69;96162.78;5069835;28;20116;-66
2020/12/14 00:13:40;;;;;;;35.35;10.50;;;;;;;4.96;83.66;96159.00;5070574;28;20556;-65
2020/12/14 00:16:07;;;;;;;37.72;10.23;;;;;;;4.98;83.49;96151.44;5070089;28;20102;-66
2020/12/14 00:18:33;;;;;;;49.67;11.05;;;;;;;4.98;83.26;96151.44;5070715;28;20052;-65
2020/12/14 00:21:00;;;;;;;43.47;10.98;;;;;;;4.98;83.27;96147.94;5070184;28;20052;-65
2020/12/14 00:23:26;;;;;;;47.60;10.20;;;;;;;4.97;83.14;96149.81;5070392;28;20055;-66
2020/12/14 00:25:52;;;;;;;47.72;11.00;;;;;;;4.99;83.33;96141.44;5070352;28;20048;-65
2020/12/14 00:28:18;;;;;;;40.88;10.65;;;;;;;4.97;83.05;96144.44;5069796;28;20569;-66
2020/12/14 00:30:44;;;;;;;46.05;11.32;;;;;;;4.96;82.99;96144.72;5069845;28;20408;-65
2020/12/14 00:33:10;;;;;;;27.77;9.88;;;;;;;4.96;83.02;96142.03;5069106;28;20190;-66
2020/12/14 00:35:36;;;;;;;64.03;11.27;;;;;;;4.97;82.91;96144.44;5068232;28;20049;-65
2020/12/14 00:38:03;;;;;;;35.63;10.50;;;;;;;4.97;83.25;96151.72;5069809;28;20106;-66
2020/12/14 00:40:29;;;;;;;43.97;10.55;;;;;;;5.01;83.14;96149.22;5069960;28;20059;-65
2020/12/14 00:42:56;;;;;;;47.22;11.02;;;;;;;5.01;82.97;96154.63;5070259;28;20048;-65
2020/12/14 00:45:22;;;;;;;43.88;10.77;;;;;;;5.02;82.73;96148.97;5069471;28;20045;-66
2020/12/14 00:47:48;;;;;;;42.33;10.63;;;;;;;5.03;82.66;96147.06;5070085;28;20045;-66
2020/12/14 00:50:14;;;;;;;43.20;11.68;;;;;;;5.04;82.55;96154.06;5069451;28;20132;-66
2020/12/14 00:52:40;;;;;;;48.72;11.52;;;;;;;5.04;82.53;96154.06;5069747;28;20048;-65
2020/12/14 00:55:07;;;;;;;45.05;11.43;;;;;;;5.06;82.56;96149.19;5069476;28;20048;-66
2020/12/14 00:57:33;;;;;;;59.88;12.45;;;;;;;5.09;82.74;96152.13;5069437;28;20056;-65
2020/12/14 00:59:59;;;;;;;48.80;11.40;;;;;;;5.10;82.89;96156.41;5069630;28;20044;-66
2020/12/14 01:02:25;;;;;;;45.58;12.23;;;;;;;5.12;82.73;96154.25;5069256;28;20127;-65
2020/12/14 01:04:51;;;;;;;48.65;12.20;;;;;;;5.11;82.66;96149.91;5069911;28;20504;-65
2020/12/14 01:07:17;;;;;;;47.90;11.95;;;;;;;5.12;82.37;96156.16;5069056;28;20071;-66
2020/12/14 01:09:43;;;;;;;46.65;11.07;;;;;;;5.13;82.73;96157.75;5069959;28;20055;-65
2020/12/14 01:12:10;;;;;;;47.55;11.07;;;;;;;5.14;82.52;96164.75;5068940;28;20041;-66
2020/12/14 01:14:36;;;;;;;38.10;11.43;;;;;;;5.17;82.75;96164.19;5069884;28;20048;-65
2020/12/14 01:17:02;;;;;;;37.97;11.57;;;;;;;5.16;82.35;96167.94;5068227;28;20056;-66
2020/12/14 01:19:28;;;;;;;53.47;11.88;;;;;;;5.18;82.15;96163.88;5069709;28;20052;-65
2020/12/14 01:21:54;;;;;;;48.80;12.20;;;;;;;5.17;82.44;96164.19;5069579;28;20132;-65
2020/12/14 01:24:20;;;;;;;48.78;9.88;;;;;;;5.18;82.28;96168.50;5069257;28;20060;-65
2020/12/14 01:26:46;;;;;;;47.55;10.02;;;;;;;5.21;82.29;96178.69;5069073;28;20045;-65
2020/12/14 01:29:13;;;;;;;42.25;9.70;;;;;;;5.27;82.29;96196.44;5069275;28;20055;-66
2020/12/14 01:31:39;;;;;;;39.53;10.48;;;;;;;5.29;82.24;96190.78;5069439;28;20055;-65
2020/12/14 01:34:05;;;;;;;45.38;10.55;;;;;;;5.32;81.89;96196.38;5069155;28;20135;-65
2020/12/14 01:36:31;;;;;;;39.17;9.88;;;;;;;5.36;81.99;96200.13;5069287;28;20717;-66
2020/12/14 01:38:57;;;;;;;37.78;9.90;;;;;;;5.40;82.00;96197.66;5069437;28;20040;-65
2020/12/14 01:41:23;;;;;;;28.83;9.45;;;;;;;5.41;81.89;96207.34;5068928;28;20136;-66
2020/12/14 01:43:49;;;;;;;39.85;9.95;;;;;;;5.43;81.78;96197.88;5068579;28;20044;-65
2020/12/14 01:46:28;;;;;;;34.28;10.07;;;;;;;5.44;81.60;96188.69;5068737;28;20123;-66
2020/12/14 01:48:59;;;;;;;45.95;10.20;;;;;;;5.41;81.42;96178.44;5069367;28;20067;-65
2020/12/14 01:51:27;;;;;;;41.83;9.98;;;;;;;5.39;81.53;96174.44;5068684;28;20123;-65
2020/12/14 01:53:54;;;;;;;45.17;9.90;;;;;;;5.36;81.48;96166.91;5069226;28;20408;-66
2020/12/14 01:56:23;;;;;;;40.20;9.43;;;;;;;5.34;81.31;96169.09;5067798;28;20044;-66
2020/12/14 01:58:49;;;;;;;47.03;9.50;;;;;;;5.32;81.40;96161.28;5069290;28;20049;-65
2020/12/14 02:01:16;;;;;;;46.20;10.15;;;;;;;5.29;81.09;96164.56;5068500;28;20041;-66
2020/12/14 02:03:42;;;;;;;49.47;9.23;;;;;;;5.18;80.67;96160.38;5069267;28;20492;-65
2020/12/14 02:06:08;;;;;;;38.83;7.97;;;;;;;5.15;80.70;96155.56;5068387;28;20045;-66
2020/12/14 02:08:34;;;;;;;48.15;9.10;;;;;;;5.13;80.61;96149.66;5069261;28;20131;-65
2020/12/14 02:11:00;;;;;;;33.10;8.02;;;;;;;5.07;79.99;96140.00;5068878;28;20045;-65
2020/12/14 02:13:28;;;;;;;44.60;8.82;;;;;;;5.03;80.28;96130.88;5068977;28;20037;-65
2020/12/14 02:15:54;;;;;;;44.03;8.02;;;;;;;5.01;80.25;96131.16;5065917;28;20044;-65
2020/12/14 02:18:22;;;;;;;42.95;9.10;;;;;;;5.01;80.72;96128.44;5069023;28;20067;-65
2020/12/14 02:20:48;;;;;;;44.13;8.95;;;;;;;4.96;80.79;96123.13;5072381;28;20045;-65
2020/12/14 02:23:14;;;;;;;30.60;7.50;;;;;;;4.97;80.76;96128.25;5072303;28;20419;-66
2020/12/14 02:25:41;;;;;;;37.80;7.80;;;;;;;4.91;80.59;96124.00;5071849;28;20048;-65
2020/12/14 02:28:07;;;;;;;41.20;9.40;;;;;;;4.92;80.54;96120.19;5071932;28;20040;-66
2020/12/14 02:30:33;;;;;;;41.35;8.57;;;;;;;4.94;80.68;96122.59;5072078;28;20047;-65
2020/12/14 02:32:59;;;;;;;42.05;8.27;;;;;;;4.93;80.62;96132.59;5072339;28;20041;-65
2020/12/14 02:35:25;;;;;;;43.50;8.70;;;;;;;4.84;80.39;96139.69;5072090;28;20128;-65
2020/12/14 02:37:51;;;;;;;40.85;8.25;;;;;;;4.80;80.68;96145.94;5072506;28;20059;-65
2020/12/14 02:40:17;;;;;;;39.97;8.25;;;;;;;4.77;80.55;96150.03;5071846;28;20479;-65
2020/12/14 02:42:44;;;;;;;36.30;8.07;;;;;;;4.75;80.70;96149.53;5072505;28;20085;-65
2020/12/14 02:45:10;;;;;;;37.83;8.27;;;;;;;4.71;81.12;96151.19;5071390;28;20044;-66
2020/12/14 02:47:36;;;;;;;46.55;9.63;;;;;;;4.72;81.28;96155.50;5072395;28;20044;-65
2020/12/14 02:50:03;;;;;;;48.55;9.88;;;;;;;4.72;81.20;96155.50;5070806;28;20056;-66
2020/12/14 02:52:29;;;;;;;44.75;9.43;;;;;;;4.69;81.21;96151.44;5072119;28;20052;-65
2020/12/14 02:54:55;;;;;;;37.22;8.90;;;;;;;4.68;81.57;96144.44;5065376;28;20102;-65
2020/12/14 02:57:21;;;;;;;40.75;8.70;;;;;;;4.67;81.62;96128.56;5051470;28;20124;-65
2020/12/14 02:59:48;;;;;;;44.15;9.55;;;;;;;4.64;81.65;96129.91;5052096;28;20055;-65
2020/12/14 03:02:14;;;;;;;39.28;8.90;;;;;;;4.60;81.38;96130.81;5051337;28;20053;-66
2020/12/14 03:04:40;;;;;;;42.70;8.60;;;;;;;4.63;81.63;96139.13;5051944;28;20562;-65
2020/12/14 03:07:06;;;;;;;43.63;9.55;;;;;;;4.65;81.46;96152.34;5050849;28;20381;-67
2020/12/14 03:09:32;;;;;;;40.55;8.90;;;;;;;4.69;81.09;96162.25;5051999;28;20049;-65
2020/12/14 03:12:00;;;;;;;44.05;9.68;;;;;;;4.75;80.97;96179.22;5051699;28;20083;-65
2020/12/14 03:14:28;;;;;;;43.22;9.55;;;;;;;4.77;80.98;96166.22;5051640;28;20049;-65
2020/12/14 03:16:56;;;;;;;44.28;9.52;;;;;;;4.79;81.17;96153.25;5051631;28;20048;-65
2020/12/14 03:19:22;;;;;;;43.17;8.50;;;;;;;4.80;81.33;96160.25;5051287;28;20044;-65
2020/12/14 03:21:48;;;;;;;32.63;8.65;;;;;;;4.81;81.25;96156.47;5051483;28;20532;-66
2020/12/14 03:24:14;;;;;;;42.05;9.05;;;;;;;4.82;81.28;96157.28;5051077;28;20068;-65
2020/12/14 03:26:41;;;;;;;40.72;9.27;;;;;;;4.82;81.34;96162.69;5055723;28;20049;-66
2020/12/14 03:29:08;;;;;;;36.67;9.30;;;;;;;4.79;81.20;96152.44;5051077;28;20045;-66
2020/12/14 03:31:34;;;;;;;46.30;9.50;;;;;;;4.73;81.28;96159.78;5050776;28;20553;-66
2020/12/14 03:34:01;;;;;;;44.67;9.18;;;;;;;4.72;81.18;96155.50;5051545;28;20040;-65
2020/12/14 03:36:27;;;;;;;40.50;9.45;;;;;;;4.74;81.35;96150.59;5051142;28;20041;-66
2020/12/14 03:38:55;;;;;;;40.97;8.95;;;;;;;4.72;81.17;96158.97;5051355;28;20049;-65
2020/12/14 03:41:22;;;;;;;41.78;9.63;;;;;;;4.71;81.39;96161.97;5050748;28;20055;-65
2020/12/14 03:43:48;;;;;;;36.38;8.27;;;;;;;4.73;81.69;96175.97;5051320;28;20045;-65
2020/12/14 03:46:15;;;;;;;45.67;9.45;;;;;;;4.74;81.44;96174.88;5032937;28;20467;-65
2020/12/14 03:48:41;;;;;;;46.83;9.48;;;;;;;4.76;81.63;96167.31;5051145;28;20045;-65
2020/12/14 03:51:09;;;;;;;45.97;9.52;;;;;;;4.80;81.38;96160.25;5050394;28;20063;-66
2020/12/14 03:53:35;;;;;;;48.95;9.15;;;;;;;4.80;81.54;96154.84;5051126;28;20056;-66
2020/12/14 03:56:01;;;;;;;41.65;8.70;;;;;;;4.77;81.26;96155.44;5054831;28;20127;-67
2020/12/14 03:58:27;;;;;;;38.95;8.30;;;;;;;4.73;81.70;96149.00;5050978;28;20048;-65
2020/12/14 04:00:53;;;;;;;47.13;9.40;;;;;;;4.72;81.56;96142.81;5050479;28;20092;-65
2020/12/14 04:03:19;;;;;;;37.60;8.90;;;;;;;4.70;81.47;96134.19;5050246;28;20080;-65
2020/12/14 04:05:45;;;;;;;41.97;8.30;;;;;;;4.66;81.07;96141.25;5050657;28;20049;-65
2020/12/14 04:08:12;;;;;;;34.55;8.57;;;;;;;4.56;81.13;96127.88;5050364;28;20040;-66
2020/12/14 04:10:38;;;;;;;45.85;9.27;;;;;;;4.50;81.53;96139.78;5050898;28;20055;-65
2020/12/14 04:13:04;;;;;;;40.33;8.18;;;;;;;4.45;81.41;96147.94;5050089;28;20049;-66
2020/12/14 04:15:30;;;;;;;39.75;8.40;;;;;;;4.41;81.40;96153.06;5050588;28;20063;-65
2020/12/14 04:17:56;;;;;;;43.85;8.73;;;;;;;4.45;81.59;96158.72;5050792;28;20083;-65
2020/12/14 04:20:22;;;;;;;44.90;9.00;;;;;;;4.48;81.41;96158.13;5049265;28;20045;-65
2020/12/14 04:22:48;;;;;;;44.53;8.70;;;;;;;4.47;81.72;96144.94;5050595;28;20045;-65
2020/12/14 04:25:16;;;;;;;38.80;8.95;;;;;;;4.42;81.62;96149.28;5053918;28;20056;-65
2020/12/14 04:27:42;;;;;;;44.45;8.52;;;;;;;4.37;81.98;96151.22;5050383;28;20492;-65
2020/12/14 04:30:08;;;;;;;45.50;9.35;;;;;;;4.36;82.06;96155.00;5049595;28;20048;-66
2020/12/14 04:32:34;;;;;;;51.03;9.18;;;;;;;4.33;82.06;96156.41;5050226;28;20440;-65
2020/12/14 04:35:00;;;;;;;44.60;8.90;;;;;;;4.34;82.28;96158.00;5050259;28;20064;-65
2020/12/14 04:37:26;;;;;;;42.78;8.95;;;;;;;4.37;81.98;96160.13;5050143;28;20044;-65
2020/12/14 04:39:52;;;;;;;48.35;9.55;;;;;;;4.40;81.91;96161.47;5050084;28;20045;-65
2020/12/14 04:42:19;;;;;;;47.67;10.07;;;;;;;4.44;81.76;96157.91;5049120;28;20052;-65
2020/12/14 04:44:46;;;;;;;45.13;9.60;;;;;;;4.48;81.81;96160.03;5050283;28;20048;-65
2020/12/14 04:47:12;;;;;;;50.22;9.48;;;;;;;4.45;81.71;96159.50;5049460;28;20048;-66
2020/12/14 04:49:39;;;;;;;46.42;9.30;;;;;;;4.45;81.56;96148.72;5049860;28;20543;-65
2020/12/14 04:52:05;;;;;;;36.53;8.40;;;;;;;4.44;81.64;96152.53;5049565;28;20045;-66
2020/12/14 04:54:32;;;;;;;50.10;9.50;;;;;;;4.40;81.74;96156.88;5053663;28;20052;-65
2020/12/14 04:57:04;;;;;;;42.40;9.35;;;;;;;4.33;81.56;96145.63;5050041;28;20040;-65
2020/12/14 04:59:31;;;;;;;43.00;9.10;;;;;;;4.27;81.68;96157.50;5049709;28;20049;-66
2020/12/14 05:02:03;;;;;;;47.78;9.80;;;;;;;4.22;81.63;96154.84;5049746;28;20052;-65
2020/12/14 05:04:29;;;;;;;38.08;8.80;;;;;;;4.16;81.57;96155.97;5049644;28;20049;-66
2020/12/14 05:06:56;;;;;;;37.85;8.88;;;;;;;4.11;81.55;96151.44;5049598;28;20084;-65
2020/12/14 05:09:22;;;;;;;44.05;8.88;;;;;;;4.05;81.91;96151.75;5049220;28;20048;-65
2020/12/14 05:11:48;;;;;;;43.30;9.30;;;;;;;4.00;81.67;96151.78;5049604;28;20052;-65
2020/12/14 05:14:15;;;;;;;35.53;9.63;;;;;;;3.93;81.68;96154.81;5049156;28;20059;-65
2020/12/14 05:16:42;;;;;;;33.53;9.27;;;;;;;3.90;81.81;96142.69;5049648;28;20049;-65
2020/12/14 05:19:22;;;;;;;43.20;9.90;;;;;;;3.86;81.96;96152.44;5049232;28;20067;-66
2020/12/14 05:21:50;;;;;;;47.38;9.00;;;;;;;3.82;81.93;96151.38;5049517;28;20049;-65
2020/12/14 05:24:26;;;;;;;48.33;10.25;;;;;;;3.76;82.11;96147.13;5049045;28;20052;-65
2020/12/14 05:26:54;;;;;;;43.10;10.35;;;;;;;3.71;81.92;96147.16;5049417;28;20052;-65
2020/12/14 05:29:27;;;;;;;35.40;10.15;;;;;;;3.67;81.99;96151.47;5049068;28;20673;-65
2020/12/14 05:32:06;;;;;;;51.13;11.50;;;;;;;3.62;81.98;96162.28;5049268;28;20052;-65
2020/12/14 05:34:33;;;;;;;51.13;10.82;;;;;;;3.57;82.11;96162.31;5049102;28;20052;-66
2020/12/14 05:37:00;;;;;;;34.45;10.93;;;;;;;3.51;82.02;96166.91;5049280;28;20045;-65
2020/12/14 05:39:28;;;;;;;42.97;11.18;;;;;;;3.46;82.01;96166.16;5049157;28;20029;-66
2020/12/14 05:42:06;;;;;;;44.13;11.48;;;;;;;3.42;82.11;96179.34;5049283;28;20075;-65
2020/12/14 05:44:32;;;;;;;43.72;10.68;;;;;;;3.36;81.98;96180.44;5049106;28;20668;-66
2020/12/14 05:46:58;;;;;;;42.90;10.30;;;;;;;3.31;82.06;96178.59;5049028;28;20051;-65
2020/12/14 05:49:25;;;;;;;41.25;10.02;;;;;;;3.27;81.93;96177.50;5048538;28;20041;-65
2020/12/14 05:51:59;;;;;;;53.25;11.25;;;;;;;3.22;82.03;96174.03;5049145;28;20048;-65
2020/12/14 05:54:35;;;;;;;58.35;11.98;;;;;;;3.14;82.23;96164.66;5052620;28;20041;-65
2020/12/14 05:57:02;;;;;;;54.53;11.02;;;;;;;3.09;82.54;96170.06;5052889;28;20045;-66
2020/12/14 05:59:33;;;;;;;53.35;11.38;;;;;;;3.04;82.49;96162.81;5053380;28;20041;-65
2020/12/14 06:02:02;;;;;;;41.63;10.70;;;;;;;3.02;82.73;96174.91;5053095;28;20045;-65
2020/12/14 06:04:33;;;;;;;52.40;11.52;;;;;;;2.99;82.50;96167.41;5053080;28;20048;-66
2020/12/14 06:07:02;;;;;;;54.17;12.00;;;;;;;2.94;82.83;96175.50;5053253;28;20411;-65
2020/12/14 06:09:35;;;;;;;42.42;10.93;;;;;;;2.90;82.73;96163.66;5052894;28;20044;-65
2020/12/14 06:12:03;;;;;;;48.97;11.10;;;;;;;2.86;82.99;96172.28;5052683;28;20415;-66
2020/12/14 06:14:38;;;;;;;53.35;11.20;;;;;;;2.85;83.30;96176.03;5059973;28;20036;-65
2020/12/14 06:17:09;;;;;;;59.45;11.85;;;;;;;2.85;83.33;96170.66;5072167;28;20048;-66
2020/12/14 06:19:36;;;;;;;59.50;11.73;;;;;;;2.89;83.72;96176.31;5072580;28;20052;-65
2020/12/14 06:22:05;;;;;;;42.03;10.10;;;;;;;2.95;83.71;96180.59;5071094;28;20194;-66
2020/12/14 06:24:33;;;;;;;58.85;10.70;;;;;;;2.98;83.59;96176.56;5074293;28;20048;-65
2020/12/14 06:27:02;;;;;;;56.13;11.55;;;;;;;2.98;83.65;96181.94;5043238;28;20055;-66
2020/12/14 06:29:30;;;;;;;53.13;11.13;;;;;;;2.96;83.52;96181.41;5052651;28;20497;-65
2020/12/14 06:31:56;;;;;;;53.30;10.88;;;;;;;2.92;83.32;96174.94;5052421;28;20044;-65
2020/12/14 06:34:39;;;;;;;49.47;11.32;;;;;;;2.88;83.27;96180.88;5052433;28;20045;-65
2020/12/14 06:37:05;;;;;;;;;;;;;;;2.85;83.38;96178.72;5052628;28;20078;-66
2020/12/14 06:39:33;;;;;;;55.22;11.05;;;;;;;2.78;83.43;96175.53;5052858;28;19974;-65
2020/12/14 06:42:21;;;;;;;54.25;12.27;;;;;;;2.78;83.70;96180.91;5052563;28;20056;-65
2020/12/14 06:45:11;;;;;;;57.30;11.77;;;;;;;2.79;84.03;96177.13;5052343;28;20067;-65
2020/12/14 06:47:55;;;;;;;59.85;10.93;;;;;;;2.81;83.87;96180.34;5052344;28;20052;-65
2020/12/14 06:50:23;;;;;;;43.72;10.90;;;;;;;2.83;83.98;96177.41;5051450;28;20056;-65
2020/12/14 06:52:49;;;;;;;63.33;13.02;;;;;;;2.85;84.00;96180.63;5052386;28;20049;-65
2020/12/14 06:55:16;;;;;;;51.08;11.45;;;;;;;2.86;84.03;96183.03;5055834;28;20044;-65
2020/12/14 06:57:42;;;;;;;58.63;13.73;;;;;;;2.84;84.12;96185.19;5052406;28;20049;-65
2020/12/14 07:00:08;;;;;;;62.72;12.23;;;;;;;2.83;84.26;96180.91;5051525;28;20064;-65
2020/12/14 07:02:36;;;;;;;55.25;12.55;;;;;;;2.88;84.12;96190.84;5052245;28;20045;-65
2020/12/14 07:05:03;;;;;;;43.85;11.13;;;;;;;2.88;84.24;96188.97;5051212;28;20041;-65
2020/12/14 07:07:31;;;;;;;37.60;9.88;;;;;;;2.90;84.18;96188.66;5052249;28;20195;-65
2020/12/14 07:10:12;;;;;;;38.38;10.02;;;;;;;2.94;84.47;96197.00;5052303;28;20049;-65
2020/12/14 07:12:43;;;;;;;62.17;12.13;;;;;;;2.97;83.96;96189.19;5051813;28;20053;-65
2020/12/14 07:15:22;;;;;;;51.53;11.18;;;;;;;3.01;84.17;96197.53;5051620;28;20048;-65
2020/12/14 07:18:01;;;;;;;45.75;10.38;;;;;;;3.05;84.21;96196.69;5051964;28;20822;-65
2020/12/14 07:20:28;;;;;;;51.22;10.35;;;;;;;3.07;83.97;96207.19;5051605;28;20056;-65
2020/12/14 07:23:01;;;;;;;50.63;10.43;;;;;;;3.11;83.78;96205.56;5051736;28;20047;-65
2020/12/14 07:25:27;;;;;;;46.90;9.90;;;;;;;3.11;83.62;96208.25;5055752;28;20040;-65
2020/12/14 07:27:53;;;;;;;41.88;9.40;;;;;;;3.09;83.68;96208.53;5051604;28;20420;-65
2020/12/14 07:30:19;;;;;;;26.50;8.52;;;;;;;3.08;83.43;96206.09;5051246;28;20082;-65
2020/12/14 07:32:46;;;;;;;40.95;9.07;;;;;;;3.11;83.57;96200.19;5051442;28;20072;-65
2020/12/14 07:35:12;;;;;;;44.97;9.55;;;;;;;3.12;83.31;96201.78;5051078;28;20115;-65
2020/12/14 07:37:40;;;;;;;51.15;8.70;;;;;;;3.10;82.98;96209.34;5051762;28;20569;-65
2020/12/14 07:40:08;;;;;;;70.03;8.60;;;;;;;3.08;82.80;96212.31;5051099;28;20053;-65
2020/12/14 07:42:36;;;;;;;48.65;8.07;;;;;;;3.03;82.72;96217.72;5051523;28;20519;-65
2020/12/14 07:45:06;;;;;;;41.80;7.80;;;;;;;3.01;82.45;96219.03;5050928;28;20074;-65
2020/12/14 07:47:32;;;;;;;42.58;7.80;;;;;;;3.01;82.63;96213.66;5051433;28;20056;-65
2020/12/14 07:50:05;;;;;;;56.53;7.88;;;;;;;2.98;82.33;96216.91;5051261;28;20045;-65
2020/12/14 07:52:33;;;;;;;48.03;7.97;;;;;;;2.94;81.74;96210.47;5051231;28;20044;-65
2020/12/14 07:55:00;;;;;;;36.53;6.53;;;;;;;2.83;81.60;96218.53;5055694;28;20049;-65
2020/12/14 07:57:31;;;;;;;60.65;7.13;;;;;;;2.80;81.80;96221.78;5051045;28;20538;-65
2020/12/14 07:59:57;;;;;;;60.53;6.78;;;;;;;2.75;81.61;96219.09;5051226;28;20114;-65
2020/12/14 08:02:24;;;;;;;50.45;6.22;;;;;;;2.66;81.44;96220.69;5050575;28;20512;-65
2020/12/14 08:04:50;;;;;;;46.92;6.38;;;;;;;2.65;81.54;96219.09;5051069;28;20049;-65
2020/12/14 08:07:19;;;;;;;66.00;7.25;;;;;;;2.68;81.64;96221.25;5050446;28;20064;-65
2020/12/14 08:09:46;;;;;;;51.70;7.38;;;;;;;2.70;81.69;96235.22;5051074;28;20053;-65
2020/12/14 08:12:13;;;;;;;47.20;7.53;;;;;;;2.73;81.81;96221.25;5050310;28;20056;-65
2020/12/14 08:14:41;;;;;;;49.35;7.53;;;;;;;2.79;81.98;96220.16;5050879;28;20045;-65
2020/12/14 08:17:11;;;;;;;44.20;6.40;;;;;;;2.84;82.37;96222.84;5049389;28;20055;-65
2020/12/14 08:19:37;;;;;;;59.75;7.35;;;;;;;2.89;82.49;96222.03;5050796;28;20041;-64
2020/12/14 08:22:08;;;;;;;44.00;6.10;;;;;;;2.86;82.14;96231.44;5049934;28;20412;-64
2020/12/14 08:24:35;;;;;;;62.40;6.78;;;;;;;2.82;81.68;96225.00;5054885;28;20514;-64
2020/12/14 08:27:04;;;;;;;36.33;5.85;;;;;;;2.79;81.35;96220.16;5049836;28;20052;-65
2020/12/14 08:29:31;;;;;;;44.20;6.68;;;;;;;2.77;81.38;96225.03;5050569;28;20052;-64
2020/12/14 08:32:00;;;;;;;45.70;6.53;;;;;;;2.81;81.60;96226.06;5049836;28;20057;-64
2020/12/14 08:34:30;;;;;;;41.50;6.47;;;;;;;2.81;81.66;96230.63;5050353;28;20041;-64
2020/12/14 08:36:56;;;;;;;42.00;6.13;;;;;;;2.82;82.08;96233.06;5050351;28;20049;-64
2020/12/14 08:39:22;;;;;;;28.02;5.88;;;;;;;2.84;81.98;96230.91;5049933;28;20040;-64
2020/12/14 08:42:02;;;;;;;28.40;5.05;;;;;;;2.87;81.92;96233.06;5050011;28;20676;-64
2020/12/14 08:44:28;;;;;;;39.75;6.38;;;;;;;2.90;81.93;96233.59;5050173;28;20048;-64
2020/12/14 08:46:55;;;;;;;61.03;6.35;;;;;;;2.91;82.22;96232.50;5050128;28;20045;-64
2020/12/14 08:49:22;;;;;;;53.63;6.50;;;;;;;2.92;81.78;96236.81;5049703;28;20059;-64
2020/12/14 08:51:49;;;;;;;42.38;5.97;;;;;;;2.98;81.98;96227.66;5050034;28;20496;-65
2020/12/14 08:54:16;;;;;;;41.90;5.30;;;;;;;3.01;81.69;96230.59;5049483;28;20056;-64
2020/12/14 08:56:43;;;;;;;62.40;6.38;;;;;;;3.06;81.65;96235.16;5053987;28;20037;-64
2020/12/14 08:59:13;;;;;;;41.60;5.85;;;;;;;3.11;81.54;96232.47;5049655;28;20128;-65
2020/12/14 09:01:40;;;;;;;39.85;5.72;;;;;;;3.15;81.72;96230.84;5049631;28;20114;-64
2020/12/14 09:04:06;;;;;;;37.22;5.40;;;;;;;3.20;81.74;96230.84;5049477;28;20045;-65
2020/12/14 09:06:35;;;;;;;41.65;5.55;;;;;;;3.19;81.08;96233.81;5049492;28;20515;-64
2020/12/14 09:09:09;;;;;;;29.77;5.00;;;;;;;3.18;81.25;96234.88;5049506;28;20041;-68
2020/12/14 09:11:37;;;;;;;70.20;7.13;;;;;;;3.13;80.83;96235.69;5049706;28;20500;-64
2020/12/14 09:14:05;;;;;;;53.00;6.20;;;;;;;3.12;80.56;96236.75;5049188;28;20044;-65
2020/12/14 09:16:31;;;;;;;35.67;5.57;;;;;;;3.12;80.59;96239.44;5049686;28;20052;-64
2020/12/14 09:18:57;;;;;;;46.08;6.15;;;;;;;3.17;80.65;96247.50;5049693;28;20412;-64
2020/12/14 09:21:23;;;;;;;33.33;5.45;;;;;;;3.18;80.88;96243.75;5049124;28;20045;-64
2020/12/14 09:24:14;;;;;;;46.33;5.78;;;;;;;3.15;80.50;96241.59;5049823;28;20037;-64
2020/12/14 09:26:41;;;;;;;35.78;5.20;;;;;;;3.16;80.58;96250.50;5053771;28;20109;-65
2020/12/14 09:29:07;;;;;;;34.42;5.28;;;;;;;3.13;80.34;96252.66;5048971;28;20420;-65
2020/12/14 09:31:33;;;;;;;40.22;6.30;;;;;;;3.14;80.55;96258.84;5049311;28;20056;-65
2020/12/14 09:33:59;;;;;;;42.22;5.40;;;;;;;3.20;80.08;96251.56;5049478;28;20124;-71
2020/12/14 09:36:25;;;;;;;44.13;5.47;;;;;;;3.24;80.07;96253.44;5049174;28;20041;-71
2020/12/14 09:38:54;;;;;;;46.78;6.57;;;;;;;3.25;80.64;96255.03;5049686;28;20041;-71
2020/12/14 09:41:22;;;;;;;34.35;5.35;;;;;;;3.29;80.63;96255.28;5049012;28;20135;-66
2020/12/14 09:43:48;;;;;;;49.83;8.52;;;;;;;3.30;80.49;96251.53;5049506;28;20057;-66
2020/12/14 09:46:14;;;;;;;39.90;6.72;;;;;;;3.28;80.38;96243.72;5048962;28;20041;-67
2020/12/14 09:48:40;;;;;;;53.83;7.40;;;;;;;3.35;80.77;96246.94;5049294;28;20041;-66
2020/12/14 09:51:07;;;;;;;41.22;6.07;;;;;;;3.43;80.97;96244.75;5048116;28;20091;-68
2020/12/14 09:53:33;;;;;;;48.72;7.10;;;;;;;3.54;81.20;96240.94;5048106;28;20068;-66
2020/12/14 09:55:59;;;;;;;42.65;6.18;;;;;;;3.69;81.26;96251.63;5053433;28;20065;-66
2020/12/14 09:58:26;;;;;;;39.35;7.28;;;;;;;3.91;81.62;96245.88;5048746;28;20139;-66
2020/12/14 10:00:52;;;;;;;41.60;6.32;;;;;;;4.05;81.38;96251.44;5048792;28;20404;-66
2020/12/14 10:03:18;;;;;;;47.00;6.18;;;;;;;4.15;80.97;96251.41;5048289;28;20140;-66
2020/12/14 10:05:47;;;;;;;39.72;5.60;;;;;;;4.17;79.83;96235.75;5049130;28;20500;-66
2020/12/14 10:08:13;;;;;;;37.08;4.90;;;;;;;4.13;78.72;96242.78;5048786;28;20063;-67
2020/12/14 10:10:39;;;;;;;35.30;5.22;;;;;;;4.15;78.88;96243.31;5049208;28;20519;-67
2020/12/14 10:13:06;;;;;;;32.25;5.55;;;;;;;4.16;78.28;96242.22;5048818;28;20076;-67
2020/12/14 10:15:33;;;;;;;33.88;4.85;;;;;;;4.13;77.54;96237.41;5049123;28;20049;-67
2020/12/14 10:17:59;;;;;;;27.77;5.13;;;;;;;4.07;77.24;96235.81;5049209;28;20049;-67
2020/12/14 10:20:25;;;;;;;30.77;5.20;;;;;;;4.08;77.37;96229.34;5048556;28;20488;-67
2020/12/14 10:22:51;;;;;;;30.30;5.22;;;;;;;4.10;77.72;96227.16;5049088;28;20098;-67
2020/12/14 10:25:17;;;;;;;28.05;5.40;;;;;;;4.19;78.22;96220.13;5052737;28;20056;-67
2020/12/14 10:27:43;;;;;;;31.58;5.55;;;;;;;4.39;78.98;96224.56;5049082;28;20049;-67
2020/12/14 10:30:09;;;;;;;34.78;5.72;;;;;;;4.49;78.30;96219.09;5048517;28;20703;-67
2020/12/14 10:32:35;;;;;;;36.17;5.60;;;;;;;4.50;77.92;96230.66;5048700;28;20570;-67
2020/12/14 10:35:01;;;;;;;38.13;5.35;;;;;;;4.55;77.40;96230.63;5048461;28;20416;-66
2020/12/14 10:37:27;;;;;;;35.08;5.07;;;;;;;4.52;77.66;96233.88;5048934;28;20045;-66
2020/12/14 10:39:53;;;;;;;43.00;5.95;;;;;;;4.56;77.52;96234.94;5049967;28;20045;-66
2020/12/14 10:42:19;;;;;;;33.60;5.07;;;;;;;4.65;77.01;96235.94;5052174;28;20045;-67
2020/12/14 10:44:45;;;;;;;36.83;6.60;;;;;;;4.69;77.42;96239.66;5052501;28;20447;-66
2020/12/14 10:47:11;;;;;;;38.35;5.45;;;;;;;4.74;77.82;96230.72;5051822;28;20041;-67
2020/12/14 10:49:38;;;;;;;36.92;5.22;;;;;;;4.75;78.03;96226.94;5052507;28;20492;-66
2020/12/14 10:52:04;;;;;;;36.17;5.80;;;;;;;4.81;77.96;96233.91;5051848;28;20049;-67
2020/12/14 10:54:30;;;;;;;46.70;5.60;;;;;;;4.89;77.84;96231.38;5055453;28;20052;-66
2020/12/14 10:56:57;;;;;;;40.72;5.63;;;;;;;4.95;77.76;96232.94;5057165;28;20041;-66
2020/12/14 10:59:23;;;;;;;23.35;4.82;;;;;;;5.03;77.43;96222.63;5071802;28;20052;-66
2020/12/14 11:01:50;;;;;;;34.67;5.85;;;;;;;5.07;76.83;96224.47;5071489;28;20045;-66
2020/12/14 11:04:16;;;;;;;35.08;5.28;;;;;;;5.12;76.21;96226.31;5071728;28;20045;-66
2020/12/14 11:06:43;;;;;;;36.67;5.20;;;;;;;5.04;75.00;96226.94;5072018;28;20544;-66
2020/12/14 11:09:09;;;;;;;37.88;5.30;;;;;;;4.93;74.57;96223.53;5071650;28;20056;-67
2020/12/14 11:11:35;;;;;;;28.80;5.07;;;;;;;4.84;75.14;96219.84;5071972;28;20051;-66
2020/12/14 11:14:02;;;;;;;37.67;5.30;;;;;;;4.78;75.43;96215.59;5060509;28;20470;-67
2020/12/14 11:16:30;;;;;;;43.20;6.55;;;;;;;4.80;76.04;96214.19;5071113;28;20579;-66
2020/12/14 11:18:57;;;;;;;39.45;5.72;;;;;;;4.78;76.73;96211.00;5071840;28;20052;-67
2020/12/14 11:21:23;;;;;;;32.08;5.38;;;;;;;4.74;76.33;96219.94;5071276;28;20125;-67
2020/12/14 11:23:50;;;;;;;38.92;5.78;;;;;;;4.65;75.57;96217.06;5071662;28;20630;-66
2020/12/14 11:26:16;;;;;;;36.55;5.70;;;;;;;4.65;76.25;96225.16;5059047;28;20051;-66
2020/12/14 11:28:42;;;;;;;32.88;5.63;;;;;;;4.60;76.12;96227.91;5051514;28;20048;-67
2020/12/14 11:31:08;;;;;;;37.15;5.15;;;;;;;4.57;75.91;96218.47;5050995;28;20051;-67
2020/12/14 11:33:34;;;;;;;27.52;5.25;;;;;;;4.49;75.56;96218.25;5051247;28;20078;-66